Time;durP1;ratioP1;P1;durP2;ratioP2;P2;SDS_P1;SDS_P2;PMS_P1;PMS_P2;Temp;Humidity;BMP_temperature;BMP_pressure;BME280_temperature;BME280_humidity;BME280_pressure;Samples;Min_cycle;Max_cycle;Signal;HPM_P1;HPM_P2
2022/03/05 00:02:08;;;;;;;30.38;15.60;;;;;;;;;;5053652;28;20032;-61
2022/03/05 00:04:34;;;;;;;27.92;14.27;;;;;;;;;;5053451;28;20025;-61
2022/03/05 00:07:00;;;;;;;27.60;14.90;;;;;;;;;;5053801;28;20474;-60
2022/03/05 00:09:26;;;;;;;29.58;15.30;;;;;;;;;;5053377;28;20040;-61
2022/03/05 00:11:52;;;;;;;28.00;15.30;;;;;;;;;;5056255;28;20071;-61
2022/03/05 00:14:18;;;;;;;28.40;15.13;;;;;;;;;;5053442;28;20041;-64
2022/03/05 00:16:44;;;;;;;27.38;14.23;;;;;;;;;;5053538;28;20032;-61
2022/03/05 00:19:10;;;;;;;27.83;14.18;;;;;;;;;;5058409;28;20382;-61
2022/03/05 00:21:37;;;;;;;28.55;14.40;;;;;;;;;;5070257;28;20020;-62
2022/03/05 00:24:03;;;;;;;28.15;14.35;;;;;;;;;;5073257;28;20040;-66
2022/03/05 00:26:29;;;;;;;28.52;14.20;;;;;;;;;;5073432;28;20020;-63
2022/03/05 00:28:55;;;;;;;28.52;14.80;;;;;;;;;;5073311;28;20370;-62
2022/03/05 00:31:21;;;;;;;26.25;14.20;;;;;;;;;;5073340;28;20489;-61
2022/03/05 00:33:47;;;;;;;28.40;15.10;;;;;;;;;;5073190;28;20031;-61
2022/03/05 00:36:13;;;;;;;27.17;14.27;;;;;;;;;;5073371;28;20362;-61
2022/03/05 00:38:39;;;;;;;29.05;13.95;;;;;;;;;;5073083;28;20037;-62
2022/03/05 00:41:05;;;;;;;27.25;14.60;;;;;;;;;;5073038;28;20071;-60
2022/03/05 00:43:31;;;;;;;28.75;14.65;;;;;;;;;;5073123;28;20107;-61
2022/03/05 00:45:57;;;;;;;26.52;14.10;;;;;;;;;;5073466;28;20048;-61
2022/03/05 00:48:23;;;;;;;28.48;14.52;;;;;;;;;;5072952;28;20043;-61
2022/03/05 00:50:49;;;;;;;28.60;14.65;;;;;;;;;;5072888;28;20458;-61
2022/03/05 00:53:17;;;;;;;26.80;14.45;;;;;;;;;;5073171;28;20037;-61
2022/03/05 00:55:43;;;;;;;28.83;14.85;;;;;;;;;;5073038;28;20016;-61
2022/03/05 00:58:09;;;;;;;26.67;14.18;;;;;;;;;;5073041;28;20036;-62
2022/03/05 01:00:35;;;;;;;27.17;14.25;;;;;;;;;;5072811;28;20032;-61
2022/03/05 01:03:02;;;;;;;27.48;14.60;;;;;;;;;;5072791;28;20024;-61
2022/03/05 01:05:28;;;;;;;29.02;14.88;;;;;;;;;;5072777;28;20020;-61
2022/03/05 01:07:54;;;;;;;28.65;13.90;;;;;;;;;;5073080;28;20033;-63
2022/03/05 01:10:20;;;;;;;27.05;13.60;;;;;;;;;;5070300;28;20025;-62
2022/03/05 01:12:46;;;;;;;26.55;14.10;;;;;;;;;;5073471;28;20072;-61
2022/03/05 01:15:12;;;;;;;27.75;13.68;;;;;;;;;;5068238;28;20085;-61
2022/03/05 01:17:38;;;;;;;28.92;14.85;;;;;;;;;;5060957;28;20108;-62
2022/03/05 01:20:05;;;;;;;27.98;14.65;;;;;;;;;;5065633;28;20394;-61
2022/03/05 01:22:31;;;;;;;26.23;13.55;;;;;;;;;;5045568;28;20556;-61
2022/03/05 01:24:57;;;;;;;27.85;14.43;;;;;;;;;;5055334;28;20025;-62
2022/03/05 01:27:23;;;;;;;26.73;13.90;;;;;;;;;;5055525;28;20191;-61
2022/03/05 01:29:49;;;;;;;27.75;14.07;;;;;;;;;;5037774;28;20025;-62
2022/03/05 01:32:15;;;;;;;26.38;13.30;;;;;;;;;;5035572;28;20080;-62
2022/03/05 01:34:41;;;;;;;26.08;13.55;;;;;;;;;;5040657;28;20024;-61
2022/03/05 01:37:07;;;;;;;29.33;15.02;;;;;;;;;;5052562;28;20025;-60
2022/03/05 01:39:33;;;;;;;25.70;13.52;;;;;;;;;;5052594;28;20496;-61
2022/03/05 01:42:01;;;;;;;26.63;13.57;;;;;;;;;;5035797;28;20108;-61
2022/03/05 01:44:27;;;;;;;26.08;13.57;;;;;;;;;;5035246;28;20117;-62
2022/03/05 01:46:53;;;;;;;26.60;13.30;;;;;;;;;;5045441;28;20047;-62
2022/03/05 01:49:19;;;;;;;28.92;13.88;;;;;;;;;;5035196;28;20060;-61
2022/03/05 01:51:46;;;;;;;25.95;13.27;;;;;;;;;;5035434;28;20108;-62
2022/03/05 01:54:12;;;;;;;26.88;13.70;;;;;;;;;;5035268;28;20028;-62
2022/03/05 01:56:39;;;;;;;25.95;13.32;;;;;;;;;;5035146;28;20104;-62
2022/03/05 01:59:05;;;;;;;25.63;13.50;;;;;;;;;;5034969;28;20068;-61
2022/03/05 02:01:31;;;;;;;26.27;13.57;;;;;;;;;;5034542;28;20124;-62
2022/03/05 02:03:58;;;;;;;27.90;12.82;;;;;;;;;;5035082;28;20080;-61
2022/03/05 02:06:24;;;;;;;26.05;13.35;;;;;;;;;;5040617;28;20013;-61
2022/03/05 02:08:51;;;;;;;26.05;13.30;;;;;;;;;;5026358;28;20108;-61
2022/03/05 02:11:17;;;;;;;25.65;12.73;;;;;;;;;;5054674;28;20107;-61
2022/03/05 02:13:43;;;;;;;25.75;13.10;;;;;;;;;;5053750;28;20466;-61
2022/03/05 02:16:10;;;;;;;25.60;13.00;;;;;;;;;;5054367;28;20052;-63
2022/03/05 02:18:36;;;;;;;25.98;13.05;;;;;;;;;;5054721;28;20143;-61
2022/03/05 02:21:02;;;;;;;26.15;12.48;;;;;;;;;;5054600;28;20032;-61
2022/03/05 02:23:28;;;;;;;25.05;12.60;;;;;;;;;;5054600;28;20033;-61
2022/03/05 02:25:55;;;;;;;25.65;12.70;;;;;;;;;;5054647;28;20048;-60
2022/03/05 02:28:22;;;;;;;25.73;12.45;;;;;;;;;;5053834;28;20024;-60
2022/03/05 02:30:48;;;;;;;26.73;13.13;;;;;;;;;;5054045;28;20432;-60
2022/03/05 02:33:15;;;;;;;25.48;12.63;;;;;;;;;;5052511;28;20469;-60
2022/03/05 02:35:43;;;;;;;23.98;11.90;;;;;;;;;;5052764;28;20032;-61
2022/03/05 02:38:09;;;;;;;24.70;12.50;;;;;;;;;;5054151;28;20036;-65
2022/03/05 02:40:35;;;;;;;25.38;12.02;;;;;;;;;;5054173;28;20478;-62
2022/03/05 02:43:01;;;;;;;25.55;11.75;;;;;;;;;;5035758;28;20041;-61
2022/03/05 02:45:27;;;;;;;23.95;12.02;;;;;;;;;;5036302;28;20057;-62
2022/03/05 02:47:53;;;;;;;23.58;11.27;;;;;;;;;;5053965;28;20031;-61
2022/03/05 02:50:19;;;;;;;24.23;12.13;;;;;;;;;;5050639;28;20020;-62
2022/03/05 02:52:45;;;;;;;23.90;11.57;;;;;;;;;;5054001;28;20064;-63
2022/03/05 02:55:11;;;;;;;23.40;11.40;;;;;;;;;;5053847;28;20021;-62
2022/03/05 02:57:38;;;;;;;24.80;11.80;;;;;;;;;;5039589;28;20076;-62
2022/03/05 03:00:05;;;;;;;25.65;11.65;;;;;;;;;;5045671;28;20030;-66
2022/03/05 03:02:31;;;;;;;24.85;11.50;;;;;;;;;;5037368;28;20025;-62
2022/03/05 03:04:57;;;;;;;24.48;12.15;;;;;;;;;;5044800;28;20466;-64
2022/03/05 03:07:23;;;;;;;24.20;11.80;;;;;;;;;;5053391;28;20075;-65
2022/03/05 03:09:49;;;;;;;23.63;11.77;;;;;;;;;;5039839;28;20112;-66
2022/03/05 03:12:15;;;;;;;24.23;11.43;;;;;;;;;;5033270;28;20050;-62
2022/03/05 03:14:41;;;;;;;24.77;11.75;;;;;;;;;;5043434;28;20033;-65
2022/03/05 03:17:07;;;;;;;24.65;11.50;;;;;;;;;;5053554;28;20025;-61
2022/03/05 03:19:33;;;;;;;25.38;12.20;;;;;;;;;;5036166;28;20040;-62
2022/03/05 03:21:59;;;;;;;24.90;11.60;;;;;;;;;;5033597;28;20112;-61
2022/03/05 03:24:25;;;;;;;24.13;10.57;;;;;;;;;;5044702;28;20025;-61
2022/03/05 03:26:51;;;;;;;23.88;11.48;;;;;;;;;;5052357;28;20033;-61
2022/03/05 03:29:17;;;;;;;23.65;11.52;;;;;;;;;;5051231;28;20501;-61
2022/03/05 03:31:43;;;;;;;23.48;11.05;;;;;;;;;;5052892;28;20029;-62
2022/03/05 03:34:09;;;;;;;24.45;11.25;;;;;;;;;;5052969;28;20036;-66
2022/03/05 03:36:35;;;;;;;25.15;11.63;;;;;;;;;;5053038;28;20117;-61
2022/03/05 03:39:01;;;;;;;23.35;11.10;;;;;;;;;;5041399;28;20037;-62
2022/03/05 03:41:27;;;;;;;23.08;11.15;;;;;;;;;;5032775;28;20044;-62
2022/03/05 03:43:53;;;;;;;24.13;10.95;;;;;;;;;;5033014;28;20079;-62
2022/03/05 03:46:19;;;;;;;23.90;11.68;;;;;;;;;;5033018;28;20021;-67
2022/03/05 03:48:45;;;;;;;24.30;11.25;;;;;;;;;;5032885;28;20026;-66
2022/03/05 03:51:11;;;;;;;23.25;10.73;;;;;;;;;;5040043;28;20029;-67
2022/03/05 03:53:37;;;;;;;24.20;11.13;;;;;;;;;;5052473;28;20436;-65
2022/03/05 03:56:03;;;;;;;24.42;11.98;;;;;;;;;;5052355;28;20025;-66
2022/03/05 03:58:29;;;;;;;23.17;10.98;;;;;;;;;;5051593;28;20037;-67
2022/03/05 04:00:55;;;;;;;25.80;11.95;;;;;;;;;;5032988;28;20416;-61
2022/03/05 04:03:21;;;;;;;23.45;10.88;;;;;;;;;;5032900;28;20029;-61
2022/03/05 04:05:47;;;;;;;24.63;11.27;;;;;;;;;;5029951;28;20036;-60
2022/03/05 04:10:57;;;;;;;26.05;11.75;;;;;;;;;;5032463;28;20091;-61
2022/03/05 04:13:23;;;;;;;23.45;10.55;;;;;;;;;;5032550;28;20429;-62
2022/03/05 04:15:49;;;;;;;25.73;11.38;;;;;;;;;;5032408;28;20111;-62
2022/03/05 04:18:15;;;;;;;24.77;10.93;;;;;;;;;;5113330;22;20084;-59
2022/03/05 04:20:41;;;;;;;21.83;10.55;;;;;;;;;;5092306;28;20464;-60
2022/03/05 04:23:07;;;;;;;25.42;11.15;;;;;;;;;;5088141;28;20040;-60
2022/03/05 04:25:33;;;;;;;24.17;10.98;;;;;;;;;;5072121;28;20021;-59
2022/03/05 04:27:59;;;;;;;26.17;11.75;;;;;;;;;;5075445;28;20020;-59
2022/03/05 04:30:25;;;;;;;24.27;11.10;;;;;;;;;;5092181;28;20028;-59
2022/03/05 04:32:51;;;;;;;24.10;11.18;;;;;;;;;;5092512;28;20020;-59
2022/03/05 04:35:17;;;;;;;25.05;11.60;;;;;;;;;;5088240;28;20035;-60
2022/03/05 04:37:44;;;;;;;24.67;11.35;;;;;;;;;;5092366;28;20395;-62
2022/03/05 04:40:10;;;;;;;24.05;10.88;;;;;;;;;;5090319;28;20221;-59
2022/03/05 04:42:36;;;;;;;25.02;10.95;;;;;;;;;;5091791;28;20451;-59
2022/03/05 04:45:03;;;;;;;25.00;11.45;;;;;;;;;;5092684;28;20074;-60
2022/03/05 04:47:29;;;;;;;24.15;11.15;;;;;;;;;;5093518;28;20085;-59
2022/03/05 04:49:55;;;;;;;24.58;11.50;;;;;;;;;;5093178;28;20020;-60
2022/03/05 04:52:21;;;;;;;23.63;11.13;;;;;;;;;;5093395;28;20027;-64
2022/03/05 04:54:47;;;;;;;24.52;11.50;;;;;;;;;;5092854;28;20425;-61
2022/03/05 04:57:13;;;;;;;24.88;11.80;;;;;;;;;;5093213;28;20082;-60
2022/03/05 04:59:38;;;;;;;24.20;11.20;;;;;;;;;;5093122;28;20042;-60
2022/03/05 05:02:04;;;;;;;24.05;11.35;;;;;;;;;;5093279;28;20401;-60
2022/03/05 05:04:30;;;;;;;24.48;11.77;;;;;;;;;;5092990;28;20131;-59
2022/03/05 05:06:57;;;;;;;25.08;11.68;;;;;;;;;;5093260;28;20020;-61
2022/03/05 05:09:23;;;;;;;24.15;11.07;;;;;;;;;;5092677;28;20024;-60
2022/03/05 05:11:49;;;;;;;24.02;11.30;;;;;;;;;;5093165;28;20039;-59
2022/03/05 05:14:15;;;;;;;24.30;11.45;;;;;;;;;;5093160;28;20467;-60
2022/03/05 05:16:41;;;;;;;25.10;11.60;;;;;;;;;;5093127;28;20021;-59
2022/03/05 05:19:25;;;;;;;24.10;11.70;;;;;;;;;;5092874;28;20438;-67
2022/03/05 05:21:52;;;;;;;25.00;11.82;;;;;;;;;;5092705;28;20038;-60
2022/03/05 05:24:18;;;;;;;23.92;11.38;;;;;;;;;;5093145;28;20028;-63
2022/03/05 05:26:44;;;;;;;25.23;11.75;;;;;;;;;;5092988;28;20024;-60
2022/03/05 05:29:10;;;;;;;22.92;10.85;;;;;;;;;;5093108;28;20104;-60
2022/03/05 05:31:36;;;;;;;24.75;10.93;;;;;;;;;;5092921;28;20059;-60
2022/03/05 05:34:02;;;;;;;25.50;11.18;;;;;;;;;;5093036;28;20024;-60
2022/03/05 05:36:29;;;;;;;24.17;11.07;;;;;;;;;;5092534;28;20028;-60
2022/03/05 05:38:55;;;;;;;24.70;11.52;;;;;;;;;;5092787;28;20028;-60
2022/03/05 05:41:21;;;;;;;25.65;11.82;;;;;;;;;;5092715;28;20061;-61
2022/03/05 05:43:47;;;;;;;25.80;11.85;;;;;;;;;;5092927;28;20020;-60
2022/03/05 05:46:13;;;;;;;25.30;11.43;;;;;;;;;;5092889;28;20055;-61
2022/03/05 05:48:40;;;;;;;25.02;11.40;;;;;;;;;;5092997;28;20036;-62
2022/03/05 05:51:06;;;;;;;24.70;11.68;;;;;;;;;;5092409;28;20070;-61
2022/03/05 05:53:32;;;;;;;24.33;11.30;;;;;;;;;;5092834;28;20059;-60
2022/03/05 05:55:58;;;;;;;26.70;11.55;;;;;;;;;;5094580;28;20016;-61
2022/03/05 05:58:24;;;;;;;23.05;10.57;;;;;;;;;;5096500;28;20142;-62
2022/03/05 06:00:50;;;;;;;25.17;11.65;;;;;;;;;;5078236;28;20035;-61
2022/03/05 06:03:16;;;;;;;24.63;11.63;;;;;;;;;;5096576;28;20028;-62
2022/03/05 06:05:43;;;;;;;25.27;11.15;;;;;;;;;;5095890;28;20013;-61
2022/03/05 06:08:09;;;;;;;24.45;11.23;;;;;;;;;;5096404;28;20028;-64
2022/03/05 06:10:35;;;;;;;24.88;11.13;;;;;;;;;;5096423;28;20032;-60
2022/03/05 06:13:01;;;;;;;24.75;11.43;;;;;;;;;;5096594;28;20020;-63
2022/03/05 06:15:28;;;;;;;24.75;11.13;;;;;;;;;;5096136;28;20024;-62
2022/03/05 06:17:56;;;;;;;23.92;11.02;;;;;;;;;;5120784;22;20399;-61
2022/03/05 06:20:22;;;;;;;24.60;11.30;;;;;;;;;;5075683;28;20391;-61
2022/03/05 06:22:48;;;;;;;25.67;11.20;;;;;;;;;;5057604;28;20480;-59
2022/03/05 06:25:14;;;;;;;26.25;11.32;;;;;;;;;;5075927;28;20103;-62
2022/03/05 06:27:40;;;;;;;25.77;12.18;;;;;;;;;;5075632;28;20028;-59
2022/03/05 06:30:07;;;;;;;25.00;11.27;;;;;;;;;;5075648;28;20024;-59
2022/03/05 06:32:33;;;;;;;24.60;10.68;;;;;;;;;;5075532;28;20387;-63
2022/03/05 06:34:59;;;;;;;24.30;11.13;;;;;;;;;;5074853;28;20492;-60
2022/03/05 06:37:25;;;;;;;24.83;11.18;;;;;;;;;;5075760;28;20062;-66
2022/03/05 06:39:51;;;;;;;26.08;12.23;;;;;;;;;;5075511;28;20029;-65
2022/03/05 06:42:16;;;;;;;24.25;11.23;;;;;;;;;;5075554;28;20024;-62
2022/03/05 06:44:43;;;;;;;24.52;11.48;;;;;;;;;;5075294;28;20437;-64
2022/03/05 06:47:09;;;;;;;24.33;11.52;;;;;;;;;;5075108;28;20037;-60
2022/03/05 06:49:35;;;;;;;26.42;12.45;;;;;;;;;;5075444;28;20034;-60
2022/03/05 06:52:01;;;;;;;27.33;11.65;;;;;;;;;;5075293;28;20107;-60
2022/03/05 06:54:27;;;;;;;25.17;11.70;;;;;;;;;;5075294;28;20077;-60
2022/03/05 06:56:53;;;;;;;24.25;11.40;;;;;;;;;;5075069;28;20025;-60
2022/03/05 06:59:19;;;;;;;24.00;10.93;;;;;;;;;;5075152;28;20039;-60
2022/03/05 07:01:45;;;;;;;26.48;11.30;;;;;;;;;;5075103;28;20028;-60
2022/03/05 07:04:11;;;;;;;24.00;11.27;;;;;;;;;;5074758;28;20024;-61
2022/03/05 07:06:40;;;;;;;23.85;10.60;;;;;;;;;;5074200;28;20061;-61
2022/03/05 07:09:06;;;;;;;25.13;11.15;;;;;;;;;;5074853;28;20059;-60
2022/03/05 07:11:32;;;;;;;25.63;11.70;;;;;;;;;;5075127;28;20063;-61
2022/03/05 07:13:59;;;;;;;24.67;11.55;;;;;;;;;;5074678;28;20121;-61
2022/03/05 07:16:25;;;;;;;24.52;11.73;;;;;;;;;;5074701;28;20071;-60
2022/03/05 07:18:51;;;;;;;26.92;11.43;;;;;;;;;;5074186;28;20366;-60
2022/03/05 07:21:17;;;;;;;24.45;11.15;;;;;;;;;;5074695;28;20150;-65
2022/03/05 07:23:43;;;;;;;24.50;11.40;;;;;;;;;;5074566;28;20059;-64
2022/03/05 07:26:09;;;;;;;25.50;11.32;;;;;;;;;;5074541;28;20031;-65
2022/03/05 07:28:35;;;;;;;24.85;11.48;;;;;;;;;;5074617;28;20104;-60
2022/03/05 07:31:01;;;;;;;25.45;11.88;;;;;;;;;;5056450;28;20025;-61
2022/03/05 07:33:27;;;;;;;24.25;11.05;;;;;;;;;;5073912;28;20021;-67
2022/03/05 07:35:54;;;;;;;25.38;11.55;;;;;;;;;;5074356;28;20480;-64
2022/03/05 07:38:20;;;;;;;24.75;11.25;;;;;;;;;;5074034;28;20112;-69
2022/03/05 07:40:46;;;;;;;24.10;11.07;;;;;;;;;;5072113;28;20032;-63
2022/03/05 07:43:12;;;;;;;24.80;11.00;;;;;;;;;;5067427;28;20036;-64
2022/03/05 07:45:38;;;;;;;24.10;11.05;;;;;;;;;;5060824;28;20020;-70
2022/03/05 07:48:04;;;;;;;25.98;11.25;;;;;;;;;;5059398;28;20033;-68
2022/03/05 07:50:31;;;;;;;24.63;11.07;;;;;;;;;;5058517;28;20032;-64
2022/03/05 07:52:57;;;;;;;25.05;11.45;;;;;;;;;;5073834;28;20100;-69
2022/03/05 07:55:23;;;;;;;24.90;11.10;;;;;;;;;;5059065;28;20017;-70
2022/03/05 07:57:49;;;;;;;24.95;11.43;;;;;;;;;;5058422;28;20536;-66
2022/03/05 08:00:16;;;;;;;23.17;10.63;;;;;;;;;;5071820;28;20020;-64
2022/03/05 08:02:42;;;;;;;24.45;11.02;;;;;;;;;;5060634;28;20114;-66
2022/03/05 08:05:08;;;;;;;24.73;11.15;;;;;;;;;;5063008;28;20028;-66
2022/03/05 08:07:34;;;;;;;24.25;11.02;;;;;;;;;;5063204;28;20108;-64
2022/03/05 08:10:00;;;;;;;25.35;11.73;;;;;;;;;;5067548;28;20053;-66
2022/03/05 08:12:26;;;;;;;27.20;11.60;;;;;;;;;;5069467;28;20102;-68
2022/03/05 08:14:52;;;;;;;24.50;11.40;;;;;;;;;;5068596;28;20024;-64
2022/03/05 08:17:18;;;;;;;25.52;11.57;;;;;;;;;;5055127;28;20029;-63
2022/03/05 08:19:44;;;;;;;25.15;11.05;;;;;;;;;;5053132;28;20078;-64
2022/03/05 08:22:10;;;;;;;27.80;11.82;;;;;;;;;;5060954;28;20079;-63
2022/03/05 08:24:36;;;;;;;27.00;11.55;;;;;;;;;;5059494;28;20024;-63
2022/03/05 08:27:02;;;;;;;27.17;12.00;;;;;;;;;;5062234;28;20354;-67
2022/03/05 08:29:28;;;;;;;25.52;11.98;;;;;;;;;;5065436;28;20116;-62
2022/03/05 08:31:54;;;;;;;31.10;12.40;;;;;;;;;;5060978;28;20088;-63
2022/03/05 08:34:20;;;;;;;28.80;12.13;;;;;;;;;;5060574;28;20541;-62
2022/03/05 08:36:47;;;;;;;26.52;12.55;;;;;;;;;;5058403;28;20077;-63
2022/03/05 08:39:13;;;;;;;29.10;13.15;;;;;;;;;;5062173;28;20033;-61
2022/03/05 08:41:39;;;;;;;26.83;11.85;;;;;;;;;;5059795;28;20028;-60
2022/03/05 08:44:05;;;;;;;28.30;12.75;;;;;;;;;;5059783;28;20055;-60
2022/03/05 08:46:31;;;;;;;33.63;13.50;;;;;;;;;;5053406;28;20097;-60
2022/03/05 08:48:57;;;;;;;30.27;13.98;;;;;;;;;;5054802;28;20473;-61
2022/03/05 08:51:23;;;;;;;30.08;13.18;;;;;;;;;;5063611;28;20126;-60
2022/03/05 08:53:49;;;;;;;29.70;13.75;;;;;;;;;;5070983;28;20020;-61
2022/03/05 08:56:15;;;;;;;28.33;13.48;;;;;;;;;;5069211;28;20065;-60
2022/03/05 08:58:41;;;;;;;30.77;13.35;;;;;;;;;;5063620;28;20045;-61
2022/03/05 09:01:08;;;;;;;29.88;12.88;;;;;;;;;;5072096;28;20024;-61
2022/03/05 09:03:34;;;;;;;26.58;12.35;;;;;;;;;;5073095;28;20028;-61
2022/03/05 09:06:01;;;;;;;30.20;13.25;;;;;;;;;;5072900;28;20021;-60
2022/03/05 09:08:27;;;;;;;28.50;12.80;;;;;;;;;;5072807;28;20032;-60
2022/03/05 09:10:53;;;;;;;31.08;13.32;;;;;;;;;;5072731;28;20511;-59
2022/03/05 09:13:19;;;;;;;27.90;13.63;;;;;;;;;;5072858;28;20471;-59
2022/03/05 09:15:45;;;;;;;27.58;13.70;;;;;;;;;;5060019;28;20024;-59
2022/03/05 09:18:11;;;;;;;29.42;13.00;;;;;;;;;;5052506;28;20050;-61
2022/03/05 09:20:38;;;;;;;30.02;12.55;;;;;;;;;;5059621;28;20100;-59
2022/03/05 09:23:04;;;;;;;26.48;12.73;;;;;;;;;;5061354;28;20017;-58
2022/03/05 09:25:30;;;;;;;28.77;12.30;;;;;;;;;;5062328;28;20385;-59
2022/03/05 09:27:56;;;;;;;28.48;12.55;;;;;;;;;;5059740;28;20028;-58
2022/03/05 09:30:22;;;;;;;26.98;12.40;;;;;;;;;;5066151;28;20024;-58
2022/03/05 09:32:48;;;;;;;27.30;12.38;;;;;;;;;;5061132;28;20508;-60
2022/03/05 09:35:15;;;;;;;27.52;12.13;;;;;;;;;;5066150;28;20035;-59
2022/03/05 09:37:41;;;;;;;26.08;11.77;;;;;;;;;;5065148;28;20040;-58
2022/03/05 09:40:08;;;;;;;28.10;11.63;;;;;;;;;;5055952;28;20029;-59
2022/03/05 09:42:34;;;;;;;25.95;12.40;;;;;;;;;;5056553;28;20025;-60
2022/03/05 09:45:00;;;;;;;25.27;11.63;;;;;;;;;;5056164;28;20017;-60
2022/03/05 09:47:27;;;;;;;26.88;12.02;;;;;;;;;;5055008;28;20102;-58
2022/03/05 09:49:54;;;;;;;26.27;12.02;;;;;;;;;;5056451;28;20040;-60
2022/03/05 09:52:20;;;;;;;27.60;11.70;;;;;;;;;;5056596;28;20020;-63
2022/03/05 09:54:46;;;;;;;26.20;12.15;;;;;;;;;;5055801;28;20036;-59
2022/03/05 09:57:13;;;;;;;27.70;12.63;;;;;;;;;;5056166;28;20021;-59
2022/03/05 09:59:39;;;;;;;26.17;12.10;;;;;;;;;;5056256;28;20401;-59
2022/03/05 10:02:05;;;;;;;25.02;11.77;;;;;;;;;;5037378;28;20029;-60
2022/03/05 10:04:32;;;;;;;25.98;11.85;;;;;;;;;;5056211;28;20499;-59
2022/03/05 10:07:10;;;;;;;27.02;11.95;;;;;;;;;;5056164;28;20024;-59
2022/03/05 10:09:37;;;;;;;24.10;10.73;;;;;;;;;;5056054;28;20060;-58
2022/03/05 10:12:23;;;;;;;25.98;11.60;;;;;;;;;;5055223;28;20109;-60
2022/03/05 10:15:04;;;;;;;26.30;11.70;;;;;;;;;;5055958;28;20021;-59
2022/03/05 10:17:43;;;;;;;27.00;12.02;;;;;;;;;;5055549;28;20041;-60
2022/03/05 10:20:09;;;;;;;24.92;10.90;;;;;;;;;;5055593;28;20092;-60
2022/03/05 10:22:35;;;;;;;26.02;11.55;;;;;;;;;;5055791;28;20044;-60
2022/03/05 10:25:01;;;;;;;24.50;11.13;;;;;;;;;;5055727;28;20533;-60
2022/03/05 10:27:30;;;;;;;25.70;11.65;;;;;;;;;;5055017;28;20025;-59
2022/03/05 10:29:56;;;;;;;25.85;11.48;;;;;;;;;;5055534;28;20037;-59
2022/03/05 10:32:22;;;;;;;30.92;12.80;;;;;;;;;;5055716;28;20116;-59
2022/03/05 10:34:49;;;;;;;25.30;12.35;;;;;;;;;;5055090;28;20032;-59
2022/03/05 10:37:15;;;;;;;26.85;11.82;;;;;;;;;;5055504;28;20048;-59
2022/03/05 10:39:42;;;;;;;26.60;11.98;;;;;;;;;;5055485;28;20142;-59
2022/03/05 10:42:20;;;;;;;27.50;11.63;;;;;;;;;;5053197;28;20055;-60
2022/03/05 10:45:00;;;;;;;25.75;11.52;;;;;;;;;;5055400;28;20037;-59
2022/03/05 10:47:26;;;;;;;25.50;11.80;;;;;;;;;;5055606;28;20040;-59
2022/03/05 10:49:52;;;;;;;25.77;11.80;;;;;;;;;;5054944;28;20385;-59
2022/03/05 10:52:18;;;;;;;25.17;11.73;;;;;;;;;;5055086;28;20060;-60
2022/03/05 10:54:44;;;;;;;26.60;11.65;;;;;;;;;;5054860;28;20025;-60
2022/03/05 10:57:13;;;;;;;26.23;11.70;;;;;;;;;;5054534;28;20025;-60
2022/03/05 10:59:40;;;;;;;24.52;11.15;;;;;;;;;;5054983;28;20029;-60
2022/03/05 11:02:08;;;;;;;25.73;12.00;;;;;;;;;;5055010;28;20492;-60
2022/03/05 11:04:39;;;;;;;27.05;12.20;;;;;;;;;;5054293;28;20424;-60
2022/03/05 11:07:05;;;;;;;;;;;;;;;;;;5055261;28;20100;-59
2022/03/05 11:09:31;;;;;;;25.27;11.65;;;;;;;;;;5054467;28;19948;-61
2022/03/05 11:12:01;;;;;;;24.40;11.20;;;;;;;;;;5054492;28;20021;-63
2022/03/05 11:14:27;;;;;;;26.83;12.32;;;;;;;;;;5054232;28;20040;-61
2022/03/05 11:16:53;;;;;;;26.45;11.73;;;;;;;;;;5054558;28;20513;-59
2022/03/05 11:19:20;;;;;;;26.25;11.93;;;;;;;;;;5053980;28;20033;-59
2022/03/05 11:21:46;;;;;;;26.75;12.05;;;;;;;;;;5036136;28;20100;-62
2022/03/05 11:24:14;;;;;;;27.65;12.68;;;;;;;;;;5054165;28;20112;-60
2022/03/05 11:26:40;;;;;;;25.25;10.98;;;;;;;;;;5054442;28;20017;-59
2022/03/05 11:29:06;;;;;;;27.85;12.30;;;;;;;;;;5054134;28;20044;-60
2022/03/05 11:31:34;;;;;;;25.42;11.35;;;;;;;;;;5056836;28;20371;-59
2022/03/05 11:34:19;;;;;;;24.80;11.65;;;;;;;;;;5053682;28;20025;-59
2022/03/05 11:36:49;;;;;;;25.67;11.57;;;;;;;;;;5053603;28;20104;-59
2022/03/05 11:39:23;;;;;;;27.27;13.10;;;;;;;;;;5053770;28;20044;-59
2022/03/05 11:41:49;;;;;;;26.10;12.10;;;;;;;;;;5068529;28;20090;-59
2022/03/05 11:44:15;;;;;;;26.23;11.90;;;;;;;;;;5074041;28;20389;-59
2022/03/05 11:46:42;;;;;;;26.13;12.13;;;;;;;;;;5073938;28;20123;-59
2022/03/05 11:49:10;;;;;;;27.05;12.57;;;;;;;;;;5073666;28;20025;-59
2022/03/05 11:51:57;;;;;;;26.15;11.95;;;;;;;;;;5070721;28;20066;-59
2022/03/05 11:54:23;;;;;;;26.92;12.20;;;;;;;;;;5064219;28;20028;-62
2022/03/05 11:57:13;;;;;;;26.92;12.68;;;;;;;;;;5066266;28;20020;-58
2022/03/05 11:59:40;;;;;;;26.02;12.20;;;;;;;;;;5074051;28;20036;-59
2022/03/05 12:02:06;;;;;;;24.73;11.73;;;;;;;;;;5073124;28;20042;-58
2022/03/05 12:04:33;;;;;;;26.30;11.85;;;;;;;;;;5054644;28;20029;-59
2022/03/05 12:07:11;;;;;;;25.48;11.77;;;;;;;;;;5062045;28;20009;-64
2022/03/05 12:09:56;;;;;;;26.08;11.85;;;;;;;;;;5063062;28;20037;-60
2022/03/05 12:12:23;;;;;;;25.25;11.63;;;;;;;;;;5054058;28;20380;-60
2022/03/05 12:15:04;;;;;;;26.80;12.30;;;;;;;;;;5052819;28;20032;-60
2022/03/05 12:17:35;;;;;;;26.63;11.95;;;;;;;;;;5050899;28;20504;-60
2022/03/05 12:20:03;;;;;;;24.95;11.02;;;;;;;;;;5053189;28;20032;-62
2022/03/05 12:22:31;;;;;;;26.27;11.32;;;;;;;;;;5053335;28;20103;-62
2022/03/05 12:24:57;;;;;;;28.40;11.88;;;;;;;;;;5053346;28;20043;-62
2022/03/05 12:27:24;;;;;;;27.40;11.65;;;;;;;;;;5053521;28;20108;-61
2022/03/05 12:29:51;;;;;;;24.85;11.60;;;;;;;;;;5035575;28;20063;-62
2022/03/05 12:32:18;;;;;;;26.38;11.57;;;;;;;;;;5053461;28;20049;-63
2022/03/05 12:34:44;;;;;;;25.05;10.63;;;;;;;;;;5053150;28;20082;-61
2022/03/05 12:37:10;;;;;;;25.08;11.02;;;;;;;;;;5052915;28;20029;-62
2022/03/05 12:39:43;;;;;;;26.23;11.48;;;;;;;;;;5053293;28;20029;-61
2022/03/05 12:42:09;;;;;;;23.63;10.45;;;;;;;;;;5053306;28;20060;-63
2022/03/05 12:44:36;;;;;;;25.15;10.95;;;;;;;;;;5053333;28;20048;-61
2022/03/05 12:47:02;;;;;;;23.20;9.93;;;;;;;;;;5053478;28;20040;-61
2022/03/05 12:49:28;;;;;;;24.63;10.05;;;;;;;;;;5053126;28;20032;-65
2022/03/05 12:51:54;;;;;;;26.38;10.63;;;;;;;;;;5052951;28;20028;-62
2022/03/05 12:54:20;;;;;;;23.58;10.18;;;;;;;;;;5052991;28;20036;-61
2022/03/05 12:56:46;;;;;;;24.55;10.52;;;;;;;;;;5053083;28;20200;-62
2022/03/05 12:59:14;;;;;;;23.60;10.23;;;;;;;;;;5052762;28;20032;-62
2022/03/05 13:01:40;;;;;;;25.60;10.02;;;;;;;;;;5052923;28;20017;-62
2022/03/05 13:04:06;;;;;;;23.63;10.02;;;;;;;;;;5053009;28;20033;-62
2022/03/05 13:06:32;;;;;;;23.58;10.05;;;;;;;;;;5051766;28;20029;-61
2022/03/05 13:08:58;;;;;;;24.55;9.57;;;;;;;;;;5052946;28;20381;-61
2022/03/05 13:11:26;;;;;;;21.95;9.43;;;;;;;;;;5052930;28;20044;-62
2022/03/05 13:13:53;;;;;;;22.73;9.73;;;;;;;;;;5052937;28;20031;-62
2022/03/05 13:16:42;;;;;;;21.88;9.18;;;;;;;;;;5052740;28;20029;-62
2022/03/05 13:19:09;;;;;;;21.98;9.38;;;;;;;;;;5053008;28;20044;-62
2022/03/05 13:21:40;;;;;;;22.65;9.52;;;;;;;;;;5052305;28;20589;-61
2022/03/05 13:24:07;;;;;;;22.20;8.90;;;;;;;;;;5052896;28;20445;-63
2022/03/05 13:26:37;;;;;;;26.23;9.45;;;;;;;;;;5052656;28;20028;-61
2022/03/05 13:29:04;;;;;;;23.07;9.20;;;;;;;;;;5052422;28;20032;-61
2022/03/05 13:31:31;;;;;;;22.08;9.05;;;;;;;;;;5052685;28;20021;-61
2022/03/05 13:33:57;;;;;;;22.13;8.80;;;;;;;;;;5052756;28;20458;-61
2022/03/05 13:36:23;;;;;;;23.30;9.35;;;;;;;;;;5052303;28;20040;-61
2022/03/05 13:38:53;;;;;;;24.08;9.13;;;;;;;;;;5052607;28;20032;-62
2022/03/05 13:41:21;;;;;;;22.35;9.20;;;;;;;;;;5052436;28;20031;-62
2022/03/05 13:43:48;;;;;;;22.08;8.88;;;;;;;;;;5052963;28;20037;-62
2022/03/05 13:46:16;;;;;;;22.80;9.27;;;;;;;;;;5052353;28;20109;-61
2022/03/05 13:48:48;;;;;;;21.80;9.38;;;;;;;;;;5052503;28;20029;-62
2022/03/05 13:51:18;;;;;;;22.20;9.18;;;;;;;;;;5052211;28;20151;-62
2022/03/05 13:53:45;;;;;;;22.20;8.98;;;;;;;;;;5052864;28;20036;-62
2022/03/05 13:56:13;;;;;;;22.77;9.38;;;;;;;;;;5052507;28;20485;-62
2022/03/05 13:58:40;;;;;;;22.00;8.77;;;;;;;;;;5052014;28;20033;-61
2022/03/05 14:01:16;;;;;;;21.35;8.50;;;;;;;;;;5052453;28;20025;-62
2022/03/05 14:04:02;;;;;;;21.17;8.77;;;;;;;;;;5052573;28;20029;-61
2022/03/05 14:06:29;;;;;;;21.80;8.75;;;;;;;;;;5038397;28;20056;-61
2022/03/05 14:08:55;;;;;;;22.27;8.30;;;;;;;;;;5052383;28;20469;-61
2022/03/05 14:11:27;;;;;;;21.35;8.45;;;;;;;;;;5052355;28;20473;-61
2022/03/05 14:13:53;;;;;;;20.52;8.10;;;;;;;;;;5052733;28;20025;-63
2022/03/05 14:16:35;;;;;;;20.52;7.63;;;;;;;;;;5052460;28;20025;-62
2022/03/05 14:19:01;;;;;;;19.13;7.15;;;;;;;;;;5055447;28;20033;-61
2022/03/05 14:21:27;;;;;;;20.67;7.72;;;;;;;;;;5055670;28;20027;-63